METAR & TAF locaux

METAR
2019/04/23 10:00 LFST 231000Z AUTO VRB02KT CAVOK 17/06 Q0998 NOSIG
2019/04/23 09:50 EDSB 230950Z 03006KT 350V060 CAVOK 16/07 Q0998
2019/04/23 10:00 LFGA 231000Z AUTO 02005KT 350V060 CAVOK 15/06 Q0997
TAF
2019/04/23 06:21 TAF LFST 230500Z 2306/2406 36005KT CAVOK PROB40 TEMPO 2313/2317 FEW060TCU
2019/04/23 06:27 TAF EDSB 230500Z 2306/2406 01009KT CAVOK BECMG 2308/2310 VRB03KT BECMG 2402/2404 20005KT
www.noaa.gov

Ne pas utiliser pour préparer ou effectuer un vol: Utilisez la documentation officielle disponible sur aviation.meteo.fr (Aéroweb)


"Le soleil du matin ne dure pas forcément toute la journée."

Animation satellite IR

Meteociel.fr

"Derrière chaque nuage se cache le ciel bleu."

Prévisions 7 jours


Meteoblue.com

"Quand les crapauds chantent, le beau temps s'avance !"

Vigilance météo

vigilance-meteo.fr

"Tout nuage n'enfante pas une tempête."
William Shakespeare